Ardoch, North Dakota
Current Conditions -  °F | °C
As of 7:58 AM on Sunday 25 Jan 2015 (Local Time) from KRDR Reporting Station
Clear Clear  
Wind Chill: -2°   Ceiling: Unl
Heat Index:   Visibility: 10mi
Dew Point:   Wind: 6mph
Humidity: 83%   Direction: 20°NNE
Pressure: 30.04"   Gusts: NA
Location:  48.21°N, 97.34°W
Report Text: KRDR 251358Z AUTO 02005KT 10SM CLR M13/M15 A3004 RMK AO2 SLP196 T11321155
Loading
Personal Weather Stations






























Interactive Weather Map New forecast layout! Learn more

10-Day Weather Forecast

Advertisements
Track Severe Weather on mobile